Time;durP1;ratioP1;P1;durP2;ratioP2;P2;SDS_P1;SDS_P2;PMS_P1;PMS_P2;Temp;Humidity;BMP_temperature;BMP_pressure;BME280_temperature;BME280_humidity;BME280_pressure;Samples;Min_cycle;Max_cycle;Signal;HPM_P1;HPM_P2
2022/09/04 00:03:05;;;;;;;10.28;7.85;;;;;;;12.62;63.54;100393.09;1675428;85;21277;-69
2022/09/04 00:05:48;;;;;;;12.60;9.78;;;;;;;12.58;63.49;100396.00;1669437;84;21110;-69
2022/09/04 00:08:29;;;;;;;11.85;8.48;;;;;;;12.57;63.63;100391.13;1698585;84;20913;-69
2022/09/04 00:11:10;;;;;;;12.35;9.10;;;;;;;12.56;63.56;100398.15;1675246;84;21008;-70
2022/09/04 00:13:44;;;;;;;27.48;9.03;;;;;;;12.54;63.98;100398.91;1691101;84;21095;-68
2022/09/04 00:16:21;;;;;;;15.68;10.08;;;;;;;12.52;63.76;100405.07;1721311;83;21810;-70
2022/09/04 00:19:12;;;;;;;13.85;9.95;;;;;;;12.45;63.82;100401.73;1691714;84;21511;-70
2022/09/04 00:21:50;;;;;;;15.53;9.90;;;;;;;12.40;63.97;100402.47;1758252;81;21575;-69
2022/09/04 00:24:20;;;;;;;16.30;10.45;;;;;;;12.37;64.15;100402.97;1706352;83;21609;-70
2022/09/04 00:27:22;;;;;;;13.48;10.30;;;;;;;12.34;64.70;100401.27;1703692;84;21015;-70
2022/09/04 00:30:10;;;;;;;17.20;10.40;;;;;;;12.28;65.19;100404.40;1754865;81;21115;-70
2022/09/04 00:33:00;;;;;;;15.05;9.88;;;;;;;12.22;65.45;100406.22;1728811;83;22205;-70
2022/09/04 00:35:33;;;;;;;15.80;10.18;;;;;;;12.16;65.67;100407.17;1687136;83;21001;-70
2022/09/04 00:38:16;;;;;;;13.80;9.68;;;;;;;12.13;65.69;100406.86;1725432;83;21032;-70
2022/09/04 00:41:04;;;;;;;12.40;8.63;;;;;;;12.05;66.14;100406.70;1714148;83;21106;-70
2022/09/04 00:43:55;;;;;;;12.05;8.93;;;;;;;12.00;65.70;100407.13;1697555;84;21318;-70
2022/09/04 00:47:01;;;;;;;13.58;9.40;;;;;;;12.02;65.62;100406.37;1705318;84;21567;-70
2022/09/04 00:49:41;;;;;;;11.28;8.85;;;;;;;12.00;66.22;100399.04;1704891;84;20951;-73
2022/09/04 00:52:53;;;;;;;20.40;10.88;;;;;;;11.92;66.41;100405.65;1673076;84;21111;-71
2022/09/04 00:55:47;;;;;;;11.88;8.18;;;;;;;11.85;66.95;100406.31;1728680;83;21049;-68
2022/09/04 00:58:52;;;;;;;14.98;8.85;;;;;;;11.79;66.21;100405.95;1706991;81;21237;-71
2022/09/04 01:01:25;;;;;;;12.53;8.68;;;;;;;11.81;66.15;100407.86;1716518;81;20998;-70
2022/09/04 01:04:26;;;;;;;12.75;7.75;;;;;;;11.78;66.43;100411.86;1668525;85;21106;-70
2022/09/04 01:07:04;;;;;;;14.93;9.18;;;;;;;11.74;66.48;100413.41;1725177;83;21532;-71
2022/09/04 01:09:43;;;;;;;12.93;8.90;;;;;;;11.76;66.11;100413.14;1703859;83;21063;-71
2022/09/04 01:12:27;;;;;;;17.57;8.63;;;;;;;11.74;66.96;100412.05;1678041;85;21086;-72
2022/09/04 01:15:13;;;;;;;12.58;8.53;;;;;;;11.64;66.82;100411.00;1699707;83;21041;-71
2022/09/04 01:17:40;;;;;;;10.82;7.25;;;;;;;11.66;66.74;100408.87;1702483;84;21013;-71
2022/09/04 01:20:44;;;;;;;19.00;9.40;;;;;;;11.67;66.79;100407.81;1700716;84;21066;-70
2022/09/04 01:23:48;;;;;;;;;;;;;;;11.66;66.91;100408.87;1697075;84;21050;-71
2022/09/04 01:26:52;;;;;;;11.08;6.95;;;;;;;11.64;67.17;100398.88;1707125;83;20716;-71
2022/09/04 01:30:01;;;;;;;10.08;6.58;;;;;;;11.63;66.78;100402.62;1706959;84;21103;-70
2022/09/04 01:33:14;;;;;;;7.83;6.42;;;;;;;11.58;67.10;100400.64;1715911;83;20925;-71
2022/09/04 01:36:10;;;;;;;11.08;6.28;;;;;;;11.57;66.93;100400.88;1705727;83;21071;-70
2022/09/04 01:38:57;;;;;;;12.47;6.85;;;;;;;11.58;66.91;100400.64;1682132;83;21073;-70
2022/09/04 01:41:50;;;;;;;9.45;7.03;;;;;;;11.58;66.36;100403.34;1699334;83;21276;-70
2022/09/04 01:44:17;;;;;;;9.33;5.80;;;;;;;11.59;66.00;100398.77;1696310;83;21017;-71
2022/09/04 01:46:59;;;;;;;11.55;6.62;;;;;;;11.60;65.57;100405.28;1708482;83;21052;-68
2022/09/04 01:49:37;;;;;;;10.28;5.85;;;;;;;11.58;66.20;100403.34;1680740;85;21015;-71
2022/09/04 01:52:15;;;;;;;8.25;6.25;;;;;;;11.46;66.53;100401.22;1703003;83;21097;-69
2022/09/04 01:55:03;;;;;;;14.00;7.08;;;;;;;11.37;67.02;100399.92;1693997;84;21325;-71
2022/09/04 01:58:09;;;;;;;12.33;6.28;;;;;;;11.34;67.06;100401.75;1708652;83;21228;-71
2022/09/04 02:01:09;;;;;;;8.15;5.67;;;;;;;11.32;66.59;100405.20;1703382;84;21073;-72
2022/09/04 02:04:10;;;;;;;4.97;4.47;;;;;;;11.37;66.14;100395.36;1673628;84;21028;-72
2022/09/04 02:07:12;;;;;;;6.35;5.12;;;;;;;11.41;65.64;100395.72;1692832;83;21046;-72
2022/09/04 02:10:16;;;;;;;9.28;5.40;;;;;;;11.40;65.48;100398.12;1645160;84;21172;-73
2022/09/04 02:13:22;;;;;;;9.93;6.62;;;;;;;11.40;65.34;100395.95;1687991;84;21026;-73
2022/09/04 02:16:15;;;;;;;8.35;4.90;;;;;;;11.36;65.89;100395.09;1699100;83;21006;-73
2022/09/04 02:19:20;;;;;;;;;;;;;;;11.39;64.90;100396.48;1703880;84;20993;-71
2022/09/04 02:22:27;;;;;;;7.03;4.85;;;;;;;11.46;64.25;100391.79;1655391;85;20210;-70
2022/09/04 02:25:23;;;;;;;7.70;5.05;;;;;;;11.50;63.81;100393.47;1669475;84;21281;-70
2022/09/04 02:28:49;;;;;;;7.40;5.58;;;;;;;11.49;63.60;100395.87;1707521;84;20943;-71
2022/09/04 02:31:31;;;;;;;10.63;5.47;;;;;;;11.46;63.14;100390.44;1706438;84;20975;-72
2022/09/04 02:34:06;;;;;;;8.08;5.08;;;;;;;11.38;63.21;100388.10;1678915;85;21063;-72
2022/09/04 02:36:59;;;;;;;8.25;4.75;;;;;;;11.37;62.65;100395.88;1699673;84;21018;-70
2022/09/04 02:39:57;;;;;;;6.92;4.35;;;;;;;11.35;63.03;100393.45;1690519;83;21574;-71
2022/09/04 02:42:31;;;;;;;6.90;4.15;;;;;;;11.28;62.61;100386.53;1672916;85;20982;-71
2022/09/04 02:45:05;;;;;;;6.05;4.20;;;;;;;11.28;62.27;100395.96;1679253;82;21002;-71
2022/09/04 02:48:02;;;;;;;12.35;5.45;;;;;;;11.30;61.89;100391.17;1702643;82;21082;-72
2022/09/04 02:50:53;;;;;;;6.65;4.97;;;;;;;11.27;63.01;100399.18;1708233;83;21005;-71
2022/09/04 02:53:37;;;;;;;7.80;4.80;;;;;;;11.19;62.51;100400.90;1707140;84;21152;-73
2022/09/04 02:56:37;;;;;;;5.97;4.12;;;;;;;11.22;61.87;100399.63;1668594;83;21089;-72
2022/09/04 02:59:29;;;;;;;6.10;4.30;;;;;;;11.24;62.06;100406.39;1709618;83;21010;-73
2022/09/04 03:01:58;;;;;;;7.17;4.45;;;;;;;11.18;61.97;100403.30;1700319;84;21041;-71
2022/09/04 03:04:48;;;;;;;4.83;4.40;;;;;;;11.11;62.09;100408.00;1690493;82;20998;-72
2022/09/04 03:07:34;;;;;;;7.87;4.83;;;;;;;11.07;62.44;100409.53;1677630;84;21127;-70
2022/09/04 03:10:20;;;;;;;9.73;4.70;;;;;;;11.07;62.10;100410.88;1680165;82;20911;-72
2022/09/04 03:13:21;;;;;;;7.33;4.80;;;;;;;11.06;61.95;100411.92;1675469;85;20907;-70
2022/09/04 03:16:08;;;;;;;8.08;4.65;;;;;;;11.06;62.48;100417.31;1675785;84;21185;-70
2022/09/04 03:18:54;;;;;;;6.70;4.87;;;;;;;10.97;62.49;100407.13;1697554;83;20949;-70
2022/09/04 03:21:26;;;;;;;6.17;5.42;;;;;;;10.89;62.98;100414.49;1716418;83;21258;-71
2022/09/04 03:24:03;;;;;;;6.90;4.90;;;;;;;10.79;63.72;100408.08;1691739;84;21027;-72
2022/09/04 03:26:45;;;;;;;7.05;5.15;;;;;;;10.74;63.87;100410.09;1699334;83;21584;-72
2022/09/04 03:29:23;;;;;;;7.17;4.03;;;;;;;10.72;63.76;100404.66;1719318;83;21576;-72
2022/09/04 03:32:06;;;;;;;6.22;4.15;;;;;;;10.73;63.47;100403.63;1707627;83;21043;-72
2022/09/04 03:34:41;;;;;;;7.37;4.00;;;;;;;10.74;63.21;100410.65;1718178;83;21160;-72
2022/09/04 03:38:01;;;;;;;8.20;5.20;;;;;;;10.76;63.00;100413.38;1717564;83;20968;-72
2022/09/04 03:40:43;;;;;;;10.18;4.80;;;;;;;10.78;63.08;100405.09;1720401;83;20976;-71
2022/09/04 03:43:22;;;;;;;6.37;4.03;;;;;;;10.77;63.41;100409.64;1697149;83;20977;-69
2022/09/04 03:46:26;;;;;;;7.35;4.75;;;;;;;10.76;63.20;100409.34;1690178;84;21035;-71
2022/09/04 03:49:19;;;;;;;6.87;5.90;;;;;;;10.76;63.29;100417.42;1706559;82;21514;-70
2022/09/04 03:52:13;;;;;;;9.20;4.05;;;;;;;10.82;63.20;100418.36;1713483;82;21052;-69
2022/09/04 03:54:59;;;;;;;7.37;6.08;;;;;;;10.81;63.49;100425.61;1702053;84;21033;-71
2022/09/04 03:58:01;;;;;;;6.47;4.53;;;;;;;10.78;63.45;100421.23;1668137;84;20975;-69
2022/09/04 04:00:36;;;;;;;9.60;4.55;;;;;;;10.78;63.60;100423.40;1688531;84;21019;-72
2022/09/04 04:03:38;;;;;;;6.25;4.53;;;;;;;10.80;63.61;100425.31;1693100;84;21105;-71
2022/09/04 04:06:41;;;;;;;6.47;4.78;;;;;;;10.81;63.73;100424.27;1701064;84;21066;-71
2022/09/04 04:09:36;;;;;;;7.70;4.75;;;;;;;10.82;63.76;100427.26;1696580;84;21033;-72
2022/09/04 04:12:27;;;;;;;9.03;5.35;;;;;;;10.88;63.62;100433.06;1696700;84;21039;-72
2022/09/04 04:15:20;;;;;;;7.28;5.28;;;;;;;10.95;63.57;100434.27;1687016;84;21074;-72
2022/09/04 04:18:10;;;;;;;5.60;4.20;;;;;;;10.98;63.68;100436.52;1688567;83;21172;-72
2022/09/04 04:21:33;;;;;;;9.80;5.47;;;;;;;11.02;63.60;100434.17;1710329;83;20934;-72
2022/09/04 04:24:31;;;;;;;9.15;4.80;;;;;;;11.08;63.63;100440.76;1710862;82;21076;-73
2022/09/04 04:27:27;;;;;;;5.53;4.90;;;;;;;11.14;63.74;100437.66;1708724;83;21063;-70
2022/09/04 04:30:05;;;;;;;4.58;4.03;;;;;;;11.20;63.75;100442.11;1696584;83;21109;-71
2022/09/04 04:32:58;;;;;;;8.83;4.60;;;;;;;11.24;63.56;100451.36;1688872;83;21659;-72
2022/09/04 04:35:39;;;;;;;22.02;13.53;;;;;;;11.31;63.40;100452.06;1697316;82;21062;-71
2022/09/04 04:38:33;;;;;;;7.83;6.08;;;;;;;11.36;63.38;100454.34;1713587;82;20943;-73
2022/09/04 04:41:20;;;;;;;7.35;5.28;;;;;;;11.44;63.13;100455.84;1696409;83;22151;-73
2022/09/04 04:44:04;;;;;;;6.00;4.83;;;;;;;11.53;63.11;100459.81;1712107;83;21011;-71
2022/09/04 04:46:53;;;;;;;5.03;3.77;;;;;;;11.60;62.90;100461.04;1712140;83;21966;-72
2022/09/04 04:49:52;;;;;;;6.78;4.12;;;;;;;11.67;62.59;100451.75;1679694;82;21659;-72
2022/09/04 04:52:40;;;;;;;10.25;8.38;;;;;;;11.76;62.26;100451.70;1707921;83;21021;-72
2022/09/04 04:55:20;;;;;;;7.53;4.58;;;;;;;11.85;62.03;100452.13;1712139;83;21046;-71
2022/09/04 04:58:14;;;;;;;7.62;4.42;;;;;;;11.94;61.70;100453.39;1712284;83;20949;-71
2022/09/04 05:01:10;;;;;;;;;;;;;;;12.04;61.65;100464.90;1714401;83;21046;-70
2022/09/04 05:03:52;;;;;;;5.72;3.92;;;;;;;12.11;61.42;100458.84;1710356;83;20135;-71
2022/09/04 05:06:37;;;;;;;6.60;4.15;;;;;;;12.21;61.42;100467.13;1709106;83;21663;-70
2022/09/04 05:09:26;;;;;;;5.97;4.50;;;;;;;12.28;60.93;100469.69;1670128;83;21073;-70
2022/09/04 05:12:17;;;;;;;6.80;5.10;;;;;;;12.36;60.63;100469.30;1690809;83;20975;-69
2022/09/04 05:14:55;;;;;;;7.00;5.08;;;;;;;12.42;60.21;100463.73;1712320;83;21577;-71
2022/09/04 05:17:53;;;;;;;13.38;7.47;;;;;;;12.51;60.00;100470.39;1690709;83;21063;-70
2022/09/04 05:20:45;;;;;;;10.10;6.00;;;;;;;12.58;59.81;100467.52;1710133;83;21015;-71
2022/09/04 05:23:26;;;;;;;4.80;3.70;;;;;;;12.66;59.30;100471.19;1719368;83;21011;-70
2022/09/04 05:26:29;;;;;;;5.62;3.40;;;;;;;12.73;58.69;100466.42;1681927;84;21488;-73
2022/09/04 05:29:46;;;;;;;5.03;3.83;;;;;;;12.79;58.47;100474.08;1710618;83;21837;-71
2022/09/04 05:32:28;;;;;;;3.92;3.37;;;;;;;12.86;58.15;100474.72;1706443;81;21011;-71
2022/09/04 05:35:10;;;;;;;8.63;4.35;;;;;;;12.93;57.94;100475.39;1700278;82;21026;-71
2022/09/04 05:37:52;;;;;;;10.38;7.15;;;;;;;12.99;57.82;100475.77;1661874;83;20989;-71
2022/09/04 05:40:48;;;;;;;5.80;4.83;;;;;;;13.04;57.81;100473.15;1725424;83;21074;-71
2022/09/04 05:43:38;;;;;;;5.67;4.10;;;;;;;13.10;57.96;100477.01;1725288;83;22210;-69
2022/09/04 05:46:17;;;;;;;9.03;4.42;;;;;;;13.18;57.97;100481.75;1728132;82;21055;-73
2022/09/04 05:48:56;;;;;;;4.35;3.55;;;;;;;13.24;57.96;100480.73;1702118;82;21074;-70
2022/09/04 05:51:52;;;;;;;7.87;3.87;;;;;;;13.31;58.05;100488.16;1677837;82;21629;-69
2022/09/04 05:54:56;;;;;;;4.78;3.83;;;;;;;13.36;57.91;100486.88;1689896;84;21042;-69
2022/09/04 05:57:57;;;;;;;6.47;4.05;;;;;;;13.44;57.79;100491.84;1694282;84;21201;-71
2022/09/04 06:00:24;;;;;;;6.20;3.65;;;;;;;13.52;57.66;100498.20;1698434;84;21042;-70
2022/09/04 06:03:49;;;;;;;5.58;3.45;;;;;;;13.61;57.46;100503.98;1697703;84;21022;-68
2022/09/04 06:06:37;;;;;;;5.37;3.33;;;;;;;13.67;57.40;100501.64;1678550;82;20990;-69
2022/09/04 06:09:59;;;;;;;3.77;3.20;;;;;;;13.75;57.23;100508.78;1703324;83;20994;-70
2022/09/04 06:12:46;;;;;;;4.08;3.20;;;;;;;13.84;56.91;100509.98;1714255;83;21157;-70
2022/09/04 06:15:36;;;;;;;11.95;4.05;;;;;;;13.94;56.62;100512.81;1681471;85;21057;-70
2022/09/04 06:18:52;;;;;;;4.12;3.00;;;;;;;14.03;56.08;100517.23;1704883;83;20986;-70
2022/09/04 06:22:02;;;;;;;7.47;4.67;;;;;;;14.11;55.51;100517.31;1640783;84;21098;-70
2022/09/04 06:25:10;;;;;;;5.83;3.12;;;;;;;14.22;54.74;100517.73;1705907;83;21098;-70
2022/09/04 06:27:51;;;;;;;3.50;2.20;;;;;;;14.33;53.45;100514.07;1696096;84;21098;-69
2022/09/04 06:30:18;;;;;;;5.58;3.65;;;;;;;14.40;52.64;100511.47;1702351;84;21016;-69
2022/09/04 06:33:17;;;;;;;6.47;3.75;;;;;;;14.48;51.90;100510.20;1711028;83;21003;-69
2022/09/04 06:36:25;;;;;;;6.53;3.08;;;;;;;14.55;51.75;100513.52;1683229;85;21041;-71
2022/09/04 06:39:03;;;;;;;3.83;2.50;;;;;;;14.64;51.51;100517.92;1721699;83;20995;-70
2022/09/04 06:42:04;;;;;;;6.35;3.12;;;;;;;14.74;51.01;100527.50;1729983;83;21283;-70
2022/09/04 06:45:08;;;;;;;2.37;2.17;;;;;;;14.82;50.20;100526.48;1729046;83;20967;-69
2022/09/04 06:48:00;;;;;;;3.30;2.58;;;;;;;14.92;49.72;100531.71;1727961;83;21148;-72
2022/09/04 06:50:32;;;;;;;3.52;2.52;;;;;;;15.00;48.93;100529.38;1710481;83;21633;-68
2022/09/04 06:53:14;;;;;;;3.95;3.15;;;;;;;15.10;48.64;100534.06;1716628;83;21055;-71
2022/09/04 06:56:09;;;;;;;7.22;3.30;;;;;;;15.17;48.37;100530.04;1683462;85;22017;-68
2022/09/04 06:59:18;;;;;;;2.72;2.50;;;;;;;15.26;47.67;100527.66;1692509;83;20946;-68
2022/09/04 07:02:43;;;;;;;3.47;1.98;;;;;;;15.35;47.13;100530.73;1691985;83;21037;-71
2022/09/04 07:05:22;;;;;;;;;;;;;;;15.41;46.56;100530.48;1686437;83;21529;-70
2022/09/04 07:08:12;;;;;;;2.25;2.00;;;;;;;15.49;46.56;100528.63;1693121;83;20232;-69
2022/09/04 07:11:02;;;;;;;5.00;2.40;;;;;;;15.55;46.23;100525.45;1690149;83;21113;-72
2022/09/04 07:13:59;;;;;;;2.92;1.98;;;;;;;15.63;46.13;100526.33;1686339;83;21029;-72
2022/09/04 07:16:47;;;;;;;3.22;1.75;;;;;;;15.73;45.80;100525.00;1711785;83;21018;-75
2022/09/04 07:19:31;;;;;;;2.35;2.08;;;;;;;15.82;45.47;100526.16;1678028;84;20987;-71
2022/09/04 07:22:34;;;;;;;3.00;1.72;;;;;;;15.89;45.64;100529.44;1711383;83;27023;-71
2022/09/04 07:25:11;;;;;;;5.33;2.20;;;;;;;15.94;44.99;100524.57;1695311;83;21243;-72
2022/09/04 07:28:29;;;;;;;4.10;3.27;;;;;;;16.02;45.19;100532.19;1687357;83;20982;-72
2022/09/04 07:31:25;;;;;;;4.47;2.30;;;;;;;16.12;44.64;100531.70;1699917;83;21562;-73
2022/09/04 07:34:15;;;;;;;4.42;1.67;;;;;;;16.18;44.60;100531.72;1657723;83;21616;-71
2022/09/04 07:36:56;;;;;;;2.40;1.72;;;;;;;16.23;44.52;100532.56;1702809;84;21035;-72
2022/09/04 07:39:37;;;;;;;6.50;2.30;;;;;;;16.28;44.11;100527.15;1700793;84;21070;-71
2022/09/04 07:42:27;;;;;;;3.20;2.02;;;;;;;16.32;44.29;100530.95;1703192;83;20999;-73
2022/09/04 07:45:07;;;;;;;3.27;2.47;;;;;;;16.40;43.98;100521.49;1703639;83;21091;-71
2022/09/04 07:47:43;;;;;;;6.58;1.45;;;;;;;16.46;44.02;100510.89;1680403;83;21522;-72
2022/09/04 07:50:25;;;;;;;2.33;1.55;;;;;;;16.51;43.18;100522.59;1684949;83;20950;-72
2022/09/04 07:53:27;;;;;;;3.65;1.70;;;;;;;16.58;43.18;100522.38;1684772;83;21858;-71
2022/09/04 07:56:01;;;;;;;4.28;1.50;;;;;;;16.64;43.03;100518.59;1692549;83;21022;-73
2022/09/04 07:59:07;;;;;;;1.82;1.55;;;;;;;16.75;42.75;100518.85;1678330;83;21053;-72
2022/09/04 08:02:21;;;;;;;4.78;1.98;;;;;;;16.82;41.23;100515.88;1706948;83;21014;-70
2022/09/04 08:05:11;;;;;;;3.80;2.25;;;;;;;16.85;41.06;100508.53;1708732;83;21038;-72
2022/09/04 08:07:49;;;;;;;3.27;1.52;;;;;;;16.85;41.25;100520.77;1697664;83;21349;-73
2022/09/04 08:10:47;;;;;;;2.90;1.45;;;;;;;16.90;40.19;100520.77;1691211;83;21511;-72
2022/09/04 08:13:26;;;;;;;5.28;1.52;;;;;;;16.98;40.26;100508.80;1712729;83;21019;-72
2022/09/04 08:16:27;;;;;;;5.12;1.92;;;;;;;17.12;39.87;100502.84;1698197;83;22258;-72
2022/09/04 08:19:32;;;;;;;2.15;1.42;;;;;;;17.16;39.22;100511.53;1723597;81;21052;-70
2022/09/04 08:22:00;;;;;;;2.83;1.72;;;;;;;17.23;39.52;100518.03;1712841;83;22075;-71
2022/09/04 08:24:41;;;;;;;2.83;1.42;;;;;;;17.22;39.08;100522.66;1720632;83;21043;-72
2022/09/04 08:27:25;;;;;;;3.42;1.87;;;;;;;17.22;38.71;100526.73;1674060;84;21082;-72
2022/09/04 08:30:06;;;;;;;5.95;1.42;;;;;;;17.23;38.64;100523.47;1707695;82;21055;-69
2022/09/04 08:33:09;;;;;;;2.65;1.52;;;;;;;17.21;38.71;100527.84;1690174;82;21054;-71
2022/09/04 08:35:59;;;;;;;4.15;1.57;;;;;;;17.22;39.00;100531.35;1674471;85;21332;-69
2022/09/04 08:38:55;;;;;;;2.47;1.52;;;;;;;17.23;39.30;100525.66;1689444;82;21119;-69
2022/09/04 08:42:04;;;;;;;5.15;2.27;;;;;;;17.28;39.39;100531.09;1648040;83;20986;-71
2022/09/04 08:45:14;;;;;;;3.02;1.50;;;;;;;17.36;39.34;100530.52;1701502;84;21140;-72
2022/09/04 08:48:02;;;;;;;3.50;2.37;;;;;;;17.38;38.85;100531.63;1688174;84;21853;-70
2022/09/04 08:51:06;;;;;;;2.20;2.00;;;;;;;17.43;38.55;100532.97;1689337;84;21381;-73
2022/09/04 08:54:32;;;;;;;3.60;2.08;;;;;;;17.50;38.59;100523.19;1677261;84;21058;-71
2022/09/04 08:57:16;;;;;;;4.65;1.98;;;;;;;17.57;38.65;100523.70;1686472;84;21088;-72
2022/09/04 09:00:20;;;;;;;3.47;1.55;;;;;;;17.65;38.54;100517.74;1688048;84;21622;-76
2022/09/04 09:03:27;;;;;;;2.93;1.57;;;;;;;17.72;38.35;100522.33;1682360;84;21043;-79
2022/09/04 09:06:31;;;;;;;1.72;1.60;;;;;;;17.80;37.91;100517.12;1693454;84;21236;-72
2022/09/04 09:09:44;;;;;;;1.90;1.57;;;;;;;17.90;38.15;100520.36;1688715;82;21050;-72
2022/09/04 09:12:41;;;;;;;2.55;1.67;;;;;;;18.02;37.52;100515.97;1674359;85;21594;-72
2022/09/04 09:15:19;;;;;;;1.50;1.30;;;;;;;18.11;36.61;100520.56;1695584;83;21007;-70
2022/09/04 09:18:23;;;;;;;4.35;2.10;;;;;;;18.18;36.52;100522.42;1691164;84;21061;-70
2022/09/04 09:21:22;;;;;;;5.60;1.77;;;;;;;18.26;35.54;100516.95;1699076;84;21630;-70
2022/09/04 09:24:15;;;;;;;4.80;1.57;;;;;;;18.34;35.97;100523.16;1679638;83;21023;-69
2022/09/04 09:27:11;;;;;;;4.10;1.87;;;;;;;18.34;35.64;100512.27;1700002;82;21007;-67
2022/09/04 09:29:59;;;;;;;12.90;2.65;;;;;;;18.40;36.04;100515.23;1672610;84;21078;-68
2022/09/04 09:33:04;;;;;;;4.70;1.42;;;;;;;18.53;35.85;100513.28;1645125;85;21063;-67
2022/09/04 09:36:03;;;;;;;6.53;2.25;;;;;;;18.66;35.27;100508.55;1686800;83;21291;-72
2022/09/04 09:38:38;;;;;;;8.75;2.22;;;;;;;18.69;35.14;100503.91;1692154;83;20919;-71
2022/09/04 09:41:39;;;;;;;3.25;1.90;;;;;;;18.83;35.22;100501.35;1688960;83;21554;-73
2022/09/04 09:44:26;;;;;;;3.27;2.15;;;;;;;19.02;34.68;100507.73;1711713;82;21139;-73
2022/09/04 09:47:22;;;;;;;3.42;1.00;;;;;;;19.14;34.52;100503.25;1683356;84;21569;-71
2022/09/04 09:50:28;;;;;;;2.85;1.62;;;;;;;19.18;34.49;100501.61;1696357;82;21058;-71
2022/09/04 09:53:19;;;;;;;1.50;1.40;;;;;;;19.24;33.99;100512.71;1709222;82;20990;-67
2022/09/04 09:56:28;;;;;;;2.98;1.98;;;;;;;19.22;34.16;100511.39;1702192;84;20975;-72
2022/09/04 09:59:19;;;;;;;3.47;3.00;;;;;;;19.22;34.65;100514.93;1695947;84;21094;-76
2022/09/04 10:02:26;;;;;;;2.08;1.85;;;;;;;19.16;34.67;100520.98;1691855;83;21003;-71
2022/09/04 10:05:04;;;;;;;2.08;1.85;;;;;;;19.05;34.68;100513.16;1709955;83;21225;-70
2022/09/04 10:08:04;;;;;;;2.45;2.08;;;;;;;18.92;34.71;100510.55;1706054;83;20970;-71
2022/09/04 10:11:09;;;;;;;4.08;2.17;;;;;;;18.89;34.82;100511.67;1701704;82;21553;-74
2022/09/04 10:14:02;;;;;;;2.50;1.55;;;;;;;18.90;35.01;100505.09;1708018;83;21168;-69
2022/09/04 10:17:08;;;;;;;2.77;1.37;;;;;;;18.96;33.91;100500.69;1682777;83;21643;-71
2022/09/04 10:19:57;;;;;;;5.42;1.60;;;;;;;18.97;34.25;100503.69;1679532;83;21249;-73
2022/09/04 10:22:29;;;;;;;5.05;1.75;;;;;;;19.10;34.54;100500.30;1676118;85;21136;-74
2022/09/04 10:25:23;;;;;;;;;;;;;;;19.28;34.09;100501.48;1684812;83;21657;-73
2022/09/04 10:28:24;;;;;;;3.85;1.37;;;;;;;19.29;34.09;100499.58;1684461;83;20149;-73
2022/09/04 10:31:02;;;;;;;2.92;1.47;;;;;;;19.30;32.96;100514.30;1683215;84;21553;-72
2022/09/04 10:33:47;;;;;;;2.25;1.65;;;;;;;19.26;32.76;100506.43;1648642;87;21164;-73
2022/09/04 10:36:40;;;;;;;4.28;1.40;;;;;;;19.24;32.67;100509.17;1656447;86;21557;-74
2022/09/04 10:42:11;;;;;;;2.60;1.30;;;;;;;19.21;32.96;100509.20;1680144;85;21011;-74
2022/09/04 10:45:14;;;;;;;7.22;1.60;;;;;;;19.35;32.53;100507.43;1683065;83;21089;-76
2022/09/04 10:48:05;;;;;;;1.22;1.00;;;;;;;19.50;32.30;100501.86;1683111;85;21430;-82
2022/09/04 10:50:58;;;;;;;1.40;1.30;;;;;;;19.58;32.18;100504.49;1622042;85;21026;-75
2022/09/04 10:54:05;;;;;;;1.87;1.65;;;;;;;19.70;32.21;100506.84;1683893;85;21053;-75
2022/09/04 10:57:03;;;;;;;5.75;1.45;;;;;;;19.85;31.92;100498.47;1683740;85;21517;-74
2022/09/04 10:59:59;;;;;;;10.72;2.15;;;;;;;19.93;31.95;100494.54;1683519;85;21070;-73
2022/09/04 11:03:17;;;;;;;2.60;1.50;;;;;;;19.94;32.21;100489.34;1610370;89;21424;-75
2022/09/04 11:06:07;;;;;;;3.00;1.98;;;;;;;19.96;32.39;100508.14;1608912;87;21177;-73
2022/09/04 11:09:01;;;;;;;8.75;3.98;;;;;;;19.88;31.36;100507.44;1669349;85;21054;-77
2022/09/04 11:11:51;;;;;;;1.50;1.40;;;;;;;19.67;31.61;100506.84;1681610;83;21078;-70
2022/09/04 11:15:00;;;;;;;1.55;1.42;;;;;;;19.64;32.44;100499.25;1672996;85;21069;-72
2022/09/04 11:17:57;;;;;;;2.67;1.80;;;;;;;19.72;32.01;100504.61;1683697;85;21301;-72
2022/09/04 11:21:02;;;;;;;1.67;1.30;;;;;;;19.71;32.06;100499.70;1686540;82;21095;-75
2022/09/04 11:24:00;;;;;;;1.75;1.47;;;;;;;19.72;31.64;100494.51;1708543;83;21515;-73
2022/09/04 11:27:06;;;;;;;1.52;1.10;;;;;;;19.79;31.75;100490.07;1711211;82;21084;-69
2022/09/04 11:30:04;;;;;;;1.65;1.55;;;;;;;19.97;31.41;100481.10;1696213;83;21546;-70
2022/09/04 11:32:42;;;;;;;4.20;1.60;;;;;;;20.03;30.82;100488.95;1708015;83;21113;-72
2022/09/04 11:35:36;;;;;;;5.58;1.70;;;;;;;20.08;30.11;100483.16;1708845;83;21023;-78
2022/09/04 11:38:06;;;;;;;;;;;;;;;20.02;30.83;100489.23;1702314;83;21102;-73
2022/09/04 11:41:14;;;;;;;3.00;1.70;;;;;;;20.06;30.59;100486.17;1703488;83;20201;-71
2022/09/04 11:44:06;;;;;;;2.47;1.47;;;;;;;20.19;30.79;100479.19;1697795;84;21614;-75
2022/09/04 11:47:08;;;;;;;2.77;1.72;;;;;;;20.28;30.85;100474.69;1698532;84;21591;-73
2022/09/04 11:50:13;;;;;;;3.55;3.12;;;;;;;20.19;31.20;100477.83;1663651;84;21053;-72
2022/09/04 11:53:14;;;;;;;2.95;2.05;;;;;;;20.20;31.31;100480.24;1709779;83;20926;-75
2022/09/04 11:56:18;;;;;;;3.40;1.92;;;;;;;20.28;31.55;100485.07;1709665;83;21078;-75
2022/09/04 11:59:22;;;;;;;2.05;1.42;;;;;;;20.36;31.16;100483.61;1708130;82;21050;-74
2022/09/04 12:02:24;;;;;;;1.22;1.00;;;;;;;20.50;30.21;100476.84;1694363;82;21263;-74
2022/09/04 12:05:19;;;;;;;7.05;1.22;;;;;;;20.42;30.15;100487.91;1697541;82;45235;-72
2022/09/04 12:07:58;;;;;;;2.58;1.30;;;;;;;20.47;29.69;100474.72;1722608;82;20958;-71
2022/09/04 12:10:42;;;;;;;2.12;1.50;;;;;;;20.54;30.01;100478.69;1712897;82;21531;-73
2022/09/04 12:13:55;;;;;;;2.25;1.17;;;;;;;20.57;29.71;100464.45;1718069;82;21054;-75
2022/09/04 12:17:01;;;;;;;3.65;1.57;;;;;;;20.57;29.71;100464.45;1742096;82;21469;-72
2022/09/04 12:19:56;;;;;;;8.48;1.95;;;;;;;20.70;29.59;100473.26;1741811;81;21602;-73
2022/09/04 12:22:44;;;;;;;;;;;;;;;20.82;29.52;100466.75;1743535;81;20946;-74
2022/09/04 12:25:35;;;;;;;1.87;1.35;;;;;;;20.89;29.33;100464.47;1714660;82;20693;-74
2022/09/04 12:28:33;;;;;;;5.45;1.27;;;;;;;20.74;29.74;100461.16;1705698;83;21486;-73
2022/09/04 12:31:45;;;;;;;2.00;1.47;;;;;;;20.77;29.97;100456.45;1708284;83;21160;-73
2022/09/04 12:34:46;;;;;;;3.47;2.02;;;;;;;20.83;29.81;100456.63;1732003;82;21035;-73
2022/09/04 12:37:43;;;;;;;2.85;1.55;;;;;;;20.75;29.94;100461.42;1741481;82;21673;-72
2022/09/04 12:40:40;;;;;;;1.42;1.27;;;;;;;20.65;29.93;100463.77;1722946;82;20942;-73
2022/09/04 12:43:27;;;;;;;1.72;1.20;;;;;;;20.59;30.28;100460.03;1711819;82;21508;-73
2022/09/04 12:46:25;;;;;;;4.22;1.55;;;;;;;20.52;30.38;100454.96;1680401;83;21392;-73
2022/09/04 12:49:17;;;;;;;3.90;1.40;;;;;;;20.51;30.44;100452.52;1711411;83;21073;-71
2022/09/04 12:51:55;;;;;;;5.58;2.33;;;;;;;20.44;30.29;100450.14;1710383;83;21001;-71
2022/09/04 12:54:52;;;;;;;4.25;1.55;;;;;;;20.44;29.99;100456.42;1711981;83;21538;-72
2022/09/04 12:57:56;;;;;;;1.67;1.10;;;;;;;20.54;30.07;100454.09;1713239;82;21081;-73
2022/09/04 13:00:31;;;;;;;2.08;1.30;;;;;;;20.74;29.77;100456.51;1735432;82;21202;-72
2022/09/04 13:03:13;;;;;;;1.55;1.12;;;;;;;20.89;29.21;100449.98;1740494;82;20972;-72
2022/09/04 13:06:26;;;;;;;1.77;1.57;;;;;;;21.07;29.12;100445.55;1741659;82;21418;-71
2022/09/04 13:09:13;;;;;;;4.22;1.72;;;;;;;21.44;29.08;100445.42;1741290;82;21145;-73
2022/09/04 13:12:09;;;;;;;1.45;1.32;;;;;;;21.56;28.72;100445.75;1724164;82;21033;-72
2022/09/04 13:15:08;;;;;;;3.72;1.70;;;;;;;21.43;29.04;100453.41;1686092;83;22754;-72
2022/09/04 13:18:17;;;;;;;1.42;1.32;;;;;;;21.32;29.06;100456.07;1685175;83;21073;-75
2022/09/04 13:21:09;;;;;;;1.85;1.55;;;;;;;21.14;29.04;100453.67;1711763;82;21010;-74
2022/09/04 13:23:56;;;;;;;3.83;2.35;;;;;;;20.95;29.70;100451.52;1712288;83;21030;-73
2022/09/04 13:26:53;;;;;;;3.00;1.20;;;;;;;20.87;29.78;100459.84;1716911;82;20939;-71